createdAt,value
2023-05-14T00:04:29.102Z,74.30
2023-05-14T00:09:35.777Z,74.80
2023-05-14T00:14:40.957Z,74.50
2023-05-14T00:19:45.836Z,74.30
2023-05-14T00:24:53.656Z,74.30
2023-05-14T00:29:58.768Z,74.40
2023-05-14T00:35:04.729Z,74.50
2023-05-14T00:40:14.312Z,74.50
2023-05-14T00:45:19.396Z,74.80
2023-05-14T00:50:24.708Z,74.50
2023-05-14T00:55:33.301Z,74.40
2023-05-14T01:00:39.507Z,74.30
2023-05-14T01:05:59.138Z,74.40
2023-05-14T01:11:12.014Z,75.10
2023-05-14T01:16:20.694Z,74.40
2023-05-14T01:21:41.098Z,74.30
2023-05-14T01:26:46.062Z,74.30
2023-05-14T01:31:53.285Z,74.30
2023-05-14T01:37:00.440Z,74.30
2023-05-14T01:42:06.548Z,75.30
2023-05-14T01:47:11.657Z,74.60
2023-05-14T01:52:21.315Z,75.10
2023-05-14T01:57:26.355Z,75.00
2023-05-14T02:02:31.408Z,75.10
2023-05-14T02:07:37.809Z,74.60
2023-05-14T02:12:43.221Z,74.70
2023-05-14T02:17:48.183Z,74.70
2023-05-14T02:22:56.395Z,74.80
2023-05-14T02:28:01.266Z,74.90
2023-05-14T02:33:06.430Z,75.10
2023-05-14T02:38:12.921Z,74.90
2023-05-14T02:43:17.919Z,74.90
2023-05-14T02:48:22.833Z,75.40
2023-05-14T02:53:29.296Z,75.00
2023-05-14T02:58:34.249Z,75.10
2023-05-14T03:03:42.582Z,75.10
2023-05-14T03:08:49.810Z,75.10
2023-05-14T03:13:54.737Z,75.00
2023-05-14T03:18:59.644Z,75.00
2023-05-14T03:24:06.348Z,75.10
2023-05-14T03:29:11.662Z,75.00
2023-05-14T03:34:17.027Z,75.30
2023-05-14T03:39:23.305Z,75.10
2023-05-14T03:44:29.190Z,75.00
2023-05-14T03:49:35.384Z,74.90
2023-05-14T03:54:43.543Z,74.50
2023-05-14T03:59:49.361Z,75.10
2023-05-14T04:04:54.648Z,75.10
2023-05-14T04:10:04.229Z,75.30
2023-05-14T04:15:11.913Z,75.20
2023-05-14T04:20:16.790Z,75.00
2023-05-14T04:25:24.414Z,75.30
2023-05-14T04:30:29.068Z,75.60
2023-05-14T04:35:33.956Z,75.80
2023-05-14T04:40:40.184Z,75.80
2023-05-14T04:45:45.398Z,76.00
2023-05-14T04:50:50.233Z,75.80
2023-05-14T04:55:56.598Z,76.00
2023-05-14T05:01:03.123Z,75.30
2023-05-14T05:06:08.887Z,75.80
2023-05-14T05:11:15.598Z,76.00
2023-05-14T05:16:20.605Z,76.10
2023-05-14T05:21:25.519Z,76.20
2023-05-14T05:26:32.010Z,76.30
2023-05-14T05:31:37.234Z,76.20
2023-05-14T05:36:42.170Z,76.30
2023-05-14T05:41:48.444Z,76.00
2023-05-14T05:46:53.393Z,74.30
2023-05-14T05:51:58.402Z,73.40
2023-05-14T05:57:04.787Z,72.50
2023-05-14T06:02:10.201Z,72.70
2023-05-14T06:07:15.187Z,73.30
2023-05-14T06:12:24.140Z,73.00
2023-05-14T06:17:29.132Z,73.30
2023-05-14T06:22:34.347Z,73.60
2023-05-14T06:27:40.747Z,73.60
2023-05-14T06:32:49.761Z,73.70
2023-05-14T06:37:54.934Z,73.80
2023-05-14T06:43:02.771Z,74.10
2023-05-14T06:48:10.429Z,71.70
2023-05-14T06:53:15.839Z,70.40
2023-05-14T06:58:23.022Z,70.10
2023-05-14T07:03:29.454Z,69.90
2023-05-14T07:08:34.654Z,70.20
2023-05-14T07:13:41.560Z,69.70
2023-05-14T07:18:48.596Z,69.40
2023-05-14T07:23:55.885Z,70.60
2023-05-14T07:29:12.686Z,70.30
2023-05-14T07:34:17.626Z,70.00
2023-05-14T07:39:25.951Z,70.40
2023-05-14T07:44:32.250Z,70.70
2023-05-14T07:49:37.395Z,69.90
2023-05-14T07:54:42.281Z,70.10
2023-05-14T07:59:50.083Z,69.80
2023-05-14T08:04:55.841Z,69.70
2023-05-14T08:10:01.069Z,69.50
2023-05-14T08:15:10.153Z,69.50
2023-05-14T08:20:15.895Z,69.40
2023-05-14T08:25:21.024Z,69.40
2023-05-14T08:30:27.660Z,69.30
2023-05-14T08:35:33.072Z,69.10
2023-05-14T08:40:38.456Z,69.00
2023-05-14T08:45:46.263Z,68.90
2023-05-14T08:50:51.468Z,68.90
2023-05-14T08:55:56.695Z,68.80
2023-05-14T09:01:03.309Z,68.90
2023-05-14T09:06:10.029Z,69.00
2023-05-14T09:11:15.640Z,68.60
2023-05-14T09:16:23.940Z,68.20
2023-05-14T09:21:33.445Z,69.40
2023-05-14T09:26:38.777Z,69.70
2023-05-14T09:31:45.596Z,70.10
2023-05-14T09:36:50.776Z,69.90
2023-05-14T09:41:56.324Z,70.30
2023-05-14T09:47:17.184Z,69.50
2023-05-14T09:52:41.476Z,69.50
2023-05-14T09:57:46.553Z,69.60
2023-05-14T10:02:53.684Z,69.40
2023-05-14T10:08:02.072Z,68.80
2023-05-14T10:13:17.215Z,68.90
2023-05-14T10:18:27.578Z,69.40
2023-05-14T10:23:33.017Z,69.90
2023-05-14T10:28:38.357Z,71.90
2023-05-14T10:34:08.694Z,72.70
2023-05-14T10:39:13.673Z,73.10
2023-05-14T10:44:20.273Z,71.40
2023-05-14T10:49:42.342Z,69.90
2023-05-14T10:54:57.429Z,69.20
2023-05-14T11:00:03.743Z,68.70
2023-05-14T11:05:16.003Z,67.80
2023-05-14T11:10:26.130Z,67.80
2023-05-14T11:15:31.326Z,68.10
2023-05-14T11:20:38.710Z,68.20
2023-05-14T11:25:43.694Z,68.60
2023-05-14T11:30:48.760Z,68.30
2023-05-14T11:35:56.394Z,67.70
2023-05-14T11:41:01.584Z,68.10
2023-05-14T11:46:06.932Z,68.20
2023-05-14T11:51:13.520Z,69.40
2023-05-14T11:56:18.748Z,68.30
2023-05-14T12:01:24.050Z,68.30
2023-05-14T12:06:35.324Z,68.20
2023-05-14T12:11:41.050Z,68.30
2023-05-14T12:16:48.361Z,68.10
2023-05-14T12:21:54.773Z,68.40
2023-05-14T12:27:03.668Z,68.00
2023-05-14T12:32:11.743Z,68.20
2023-05-14T12:37:20.710Z,68.00
2023-05-14T12:42:25.669Z,68.20
2023-05-14T12:47:30.580Z,67.40
2023-05-14T12:52:39.375Z,67.90
2023-05-14T12:57:45.319Z,67.70
2023-05-14T13:02:50.316Z,67.30
2023-05-14T13:07:57.176Z,67.50
2023-05-14T13:13:02.750Z,67.20
2023-05-14T13:18:08.135Z,67.60
2023-05-14T13:23:16.240Z,67.50
2023-05-14T13:28:21.529Z,67.30
2023-05-14T13:33:27.038Z,67.20
2023-05-14T13:38:33.645Z,66.70
2023-05-14T13:43:39.419Z,66.40
2023-05-14T13:48:44.443Z,66.40
2023-05-14T13:53:51.454Z,66.20
2023-05-14T13:58:57.003Z,65.30
2023-05-14T14:04:02.678Z,65.10
2023-05-14T14:09:10.521Z,65.30
2023-05-14T14:14:15.793Z,65.70
2023-05-14T14:19:20.997Z,65.40
2023-05-14T14:24:27.565Z,65.50
2023-05-14T14:29:32.614Z,65.50
2023-05-14T14:34:37.990Z,65.70
2023-05-14T14:39:44.688Z,65.00
2023-05-14T14:44:50.044Z,65.10
2023-05-14T14:49:55.224Z,65.30
2023-05-14T14:55:02.228Z,65.20
2023-05-14T15:00:10.495Z,65.40
2023-05-14T15:05:15.512Z,64.80
2023-05-14T15:10:23.859Z,64.20
2023-05-14T15:15:28.962Z,64.40
2023-05-14T15:20:34.102Z,64.90
2023-05-14T15:25:43.561Z,64.30
2023-05-14T15:30:50.714Z,64.10
2023-05-14T15:35:55.682Z,64.40
2023-05-14T15:41:02.989Z,65.00
2023-05-14T15:46:08.059Z,65.60
2023-05-14T15:51:13.449Z,65.30
2023-05-14T15:56:19.866Z,65.20
2023-05-14T16:01:24.982Z,65.00
2023-05-14T16:06:30.000Z,64.60
2023-05-14T16:11:36.539Z,64.40
2023-05-14T16:16:41.874Z,64.60
2023-05-14T16:21:47.487Z,64.10
2023-05-14T16:26:56.424Z,64.10
2023-05-14T16:32:01.385Z,63.90
2023-05-14T16:37:07.014Z,63.90
2023-05-14T16:42:13.713Z,63.40
2023-05-14T16:47:18.951Z,63.90
2023-05-14T16:52:24.231Z,63.70
2023-05-14T16:57:30.919Z,64.40
2023-05-14T17:02:36.940Z,65.50
2023-05-14T17:07:41.798Z,66.60
2023-05-14T17:12:48.136Z,67.50
2023-05-14T17:17:53.484Z,68.10
2023-05-14T17:22:58.734Z,68.60
2023-05-14T17:28:06.968Z,69.00
2023-05-14T17:33:11.996Z,69.60
2023-05-14T17:38:17.665Z,70.80
2023-05-14T17:43:34.291Z,70.60
2023-05-14T17:49:15.370Z,70.10
2023-05-14T17:56:11.049Z,70.50
2023-05-14T18:54:30.752Z,71.60
2023-05-14T19:16:19.904Z,72.00
2023-05-14T20:52:20.782Z,72.60
2023-05-14T21:37:36.856Z,73.20
2023-05-14T22:00:19.581Z,73.20
2023-05-14T22:10:59.915Z,73.50
2023-05-14T22:16:12.763Z,73.60
2023-05-14T22:21:19.931Z,73.70
2023-05-14T22:26:25.157Z,73.70
2023-05-14T22:31:30.249Z,74.00
2023-05-14T22:36:37.945Z,74.00
2023-05-14T22:41:42.875Z,74.20
2023-05-14T22:46:47.651Z,74.20
2023-05-14T22:51:54.719Z,74.50
2023-05-14T22:56:59.994Z,74.40
2023-05-14T23:02:06.121Z,74.60
2023-05-14T23:07:14.146Z,74.70
2023-05-14T23:12:19.034Z,74.90
2023-05-14T23:17:24.168Z,75.00
2023-05-14T23:22:30.439Z,75.10
2023-05-14T23:27:35.555Z,75.30
2023-05-14T23:32:40.661Z,75.40
2023-05-14T23:37:47.533Z,75.50
2023-05-14T23:42:52.888Z,75.70
2023-05-14T23:47:59.882Z,75.80
2023-05-14T23:53:06.282Z,76.10
2023-05-14T23:58:11.347Z,76.20
